Pagina principale
METAR-TAF:

METAR-TAF

Aeroporti :

Aeroporto Internazionale di Sarajevo

Sarajevo, Bosnia-Erzegovina

latitudine: 43-49N, longitudine: 018-20E, altezza: 511 m

Osservazione

Il bollettino è stato emesso 23 minuti fa, alle 16:30 UTC
Vento 3 kt da est/sud-est
Temperature 7°C
Umidità 93%
Pressione 1019 hPa
Visibilità: 7000 m

METAR: LQSA 231630Z 12003KT 7000 NSC 07/06 Q1019

Ora: 18:53 (16:53 UTC)

Previsione

Il bollettino è stato emesso 5 ore e 53 minuti fa, alle 11:00 UTC
Previsione valida dal 23 alle 12 UTC al 24 alle 12 UTC
Vento 2 kt da direzioni variabili
Visibilità: 8000 m
Nuvoloso ad un'altezza di 4000 ft
Temporaneamente
dal 24 alle 09 UTC al 24 alle 12 UTC
Vento 12 kt da ovest/nord-ovest

TAF: LQSA 231100Z 2312/2412 VRB02KT 8000 BKN040 TX17/2412Z TN08/2403Z TEMPO 2409/2412 30012KT

Osservazioni e previsioni meteorologiche di più di 4000 aeroporti (messaggi METAR e TAF).

Le stazioni disponibili sono rappresentate dai dischi gialli e rossi sulla carta.

Puntare il mouse per vedere il nome della stazione.

Clicca sopra per visualizzare le osservazioni e previsioni meteorologiche.

Per cambiare la mappa : fare clic sui pulsanti verdi con una croce nera per ingrandire, il pulsante verde con un trattino per diminuire, o sulla freccia verde per le mappe adiacenti.


METAR-TAF: